LFOB/BVA METAR and TAF weather

Enter ICAO airport designator
Station Type Date Time Source
LFOB METAR 2019/10/19 07:00 UTC NOAA

LFOB 190700Z AUTO 20005KT CAVOK 11/10 Q1004 TEMPO 4000 DZ BKN008


Station Type Date Time Source
LFOB Decoded METAR 2019/10/19 07:00 UTC NOAA

Beauvais, France (LFOB) 49-28N 002-07E 111M
Oct 19, 2019 - 03:00 AM EDT / 2019.10.19 0700 UTC
Wind: from the SSW (200 degrees) at 6 MPH (5 KT):0
Visibility: greater than 7 mile(s):0
Temperature: 51 F (11 C)
Dew Point: 50 F (10 C)
Relative Humidity: 93%
Pressure (altimeter): 29.65 in. Hg (1004 hPa)
ob: LFOB 190700Z AUTO 20005KT CAVOK 11/10 Q1004 TEMPO 4000 DZ BKN008
cycle: 7

Station Type Date Time Source
LFOB TAF 2019/10/19 06:21 UTC NOAA

TAF TAF LFOB 190500Z 1906/2006 21010KT 9999 BKN020
TEMPO 1906/1910 BKN012 PROB30
TEMPO 1906/1910 4000 DZ BKN008
TEMPO 1910/1918 BKN025CB PROB30
TEMPO 1910/1915 4000 SHRA BKN012 BKN025CB
BECMG 1918/1920 VRB02KT PROB40 1920/2003 3000 BR PROB30 2000/2003 0500 FG VV///
TEMPO 2003/2006 4000 RA BKN012 OVC040

Example: see airport list